createdAt,value
2022-09-28T00:01:19.208Z,2.65
2022-09-28T00:03:48.880Z,1.95
2022-09-28T00:06:20.504Z,0.63
2022-09-28T00:08:50.064Z,2.13
2022-09-28T00:11:19.939Z,1.35
2022-09-28T00:13:53.635Z,0.80
2022-09-28T00:16:27.766Z,2.25
2022-09-28T00:18:55.091Z,1.75
2022-09-28T00:21:25.695Z,1.08
2022-09-28T00:24:35.281Z,1.50
2022-09-28T00:27:02.858Z,3.47
2022-09-28T00:29:36.449Z,0.63
2022-09-28T00:32:11.607Z,0.95
2022-09-28T00:37:13.726Z,0.55
2022-09-28T00:39:44.335Z,0.90
2022-09-28T00:42:24.555Z,2.67
2022-09-28T00:44:56.370Z,1.05
2022-09-28T00:47:40.643Z,1.85
2022-09-28T00:50:28.140Z,1.67
2022-09-28T00:53:19.621Z,0.70
2022-09-28T00:55:51.940Z,1.98
2022-09-28T00:58:29.729Z,1.42
2022-09-28T01:00:59.624Z,1.00
2022-09-28T01:03:28.553Z,1.02
2022-09-28T01:05:59.612Z,2.63
2022-09-28T01:08:29.353Z,1.02
2022-09-28T01:10:59.805Z,0.75
2022-09-28T01:13:32.285Z,0.80
2022-09-28T01:16:33.855Z,0.63
2022-09-28T01:19:40.620Z,1.58
2022-09-28T01:22:47.500Z,0.90
2022-09-28T01:25:50.792Z,1.00
2022-09-28T01:28:22.359Z,0.88
2022-09-28T01:31:14.525Z,0.88
2022-09-28T01:34:39.146Z,0.77
2022-09-28T01:37:13.152Z,1.05
2022-09-28T01:39:46.884Z,1.17
2022-09-28T01:42:23.695Z,0.88
2022-09-28T01:44:55.296Z,1.10
2022-09-28T01:47:26.376Z,2.08
2022-09-28T01:50:07.323Z,0.75
2022-09-28T01:52:45.445Z,1.88
2022-09-28T01:55:29.694Z,1.65
2022-09-28T01:58:15.436Z,0.93
2022-09-28T02:00:49.288Z,3.17
2022-09-28T02:03:43.774Z,1.98
2022-09-28T02:06:22.893Z,1.88
2022-09-28T02:08:56.464Z,2.25
2022-09-28T02:11:33.255Z,2.75
2022-09-28T02:14:06.858Z,1.23
2022-09-28T02:16:44.892Z,1.90
2022-09-28T02:19:23.570Z,4.57
2022-09-28T02:22:24.400Z,1.75
2022-09-28T02:25:13.003Z,2.38
2022-09-28T02:27:59.697Z,2.75
2022-09-28T02:30:30.741Z,2.00
2022-09-28T02:33:24.526Z,5.07
2022-09-28T02:35:51.632Z,2.90
2022-09-28T02:38:20.243Z,4.07
2022-09-28T02:41:05.359Z,2.05
2022-09-28T02:43:51.071Z,1.77
2022-09-28T02:46:48.282Z,2.00
2022-09-28T02:49:25.710Z,3.45
2022-09-28T02:52:16.881Z,0.88
2022-09-28T02:54:58.964Z,2.58
2022-09-28T02:57:48.385Z,2.90
2022-09-28T03:00:20.327Z,2.45
2022-09-28T03:03:01.776Z,1.88
2022-09-28T03:06:13.405Z,2.03
2022-09-28T03:09:07.990Z,1.73
2022-09-28T03:11:45.695Z,1.67
2022-09-28T03:14:13.492Z,1.95
2022-09-28T03:16:51.617Z,2.15
2022-09-28T03:19:26.513Z,1.30
2022-09-28T03:21:54.278Z,0.60
2022-09-28T03:24:21.371Z,1.42
2022-09-28T03:26:48.189Z,1.55
2022-09-28T03:29:15.284Z,1.23
2022-09-28T03:31:45.113Z,1.73
2022-09-28T03:34:12.147Z,1.45
2022-09-28T03:36:39.019Z,1.08
2022-09-28T03:39:05.856Z,1.00
2022-09-28T03:41:32.727Z,1.38
2022-09-28T03:43:59.883Z,1.15
2022-09-28T03:46:28.613Z,1.52
2022-09-28T03:49:00.004Z,1.33
2022-09-28T03:51:29.277Z,1.45
2022-09-28T03:53:56.068Z,1.27
2022-09-28T03:56:23.024Z,1.90
2022-09-28T03:58:50.152Z,1.88
2022-09-28T04:01:18.181Z,1.50
2022-09-28T04:03:52.773Z,4.38
2022-09-28T04:06:19.666Z,1.75
2022-09-28T04:08:46.489Z,3.53
2022-09-28T04:11:13.710Z,3.42
2022-09-28T04:13:40.917Z,2.47
2022-09-28T04:16:11.702Z,2.38
2022-09-28T04:18:42.689Z,3.88
2022-09-28T04:21:20.925Z,4.32
2022-09-28T04:23:58.159Z,3.30
2022-09-28T04:26:27.463Z,3.15
2022-09-28T04:29:13.935Z,4.60
2022-09-28T04:31:51.691Z,3.30
2022-09-28T04:34:22.603Z,4.20
2022-09-28T04:36:50.428Z,5.35
2022-09-28T04:39:21.549Z,5.45
2022-09-28T04:41:51.673Z,5.38
2022-09-28T04:44:18.915Z,6.85
2022-09-28T04:46:47.389Z,7.05
2022-09-28T04:49:29.469Z,7.32
2022-09-28T04:52:17.174Z,8.15
2022-09-28T04:54:45.318Z,7.53
2022-09-28T04:57:12.156Z,7.45
2022-09-28T04:59:39.173Z,8.02
2022-09-28T05:02:06.024Z,9.68
2022-09-28T05:04:51.355Z,8.38
2022-09-28T05:07:34.323Z,7.88
2022-09-28T05:10:03.024Z,7.35
2022-09-28T05:12:33.722Z,7.95
2022-09-28T05:15:00.957Z,9.95
2022-09-28T05:17:28.456Z,8.35
2022-09-28T05:20:18.722Z,6.95
2022-09-28T05:22:45.862Z,9.07
2022-09-28T05:25:12.924Z,9.50
2022-09-28T05:30:48.489Z,14.35
2022-09-28T05:33:24.257Z,9.85
2022-09-28T05:36:04.042Z,9.75
2022-09-28T05:38:31.144Z,10.38
2022-09-28T05:41:02.110Z,8.55
2022-09-28T05:43:32.864Z,9.23
2022-09-28T05:46:00.553Z,8.20
2022-09-28T05:48:28.370Z,7.32
2022-09-28T05:50:55.671Z,9.70
2022-09-28T05:53:22.712Z,7.38
2022-09-28T05:55:49.760Z,9.00
2022-09-28T05:58:17.721Z,10.35
2022-09-28T06:00:54.315Z,10.48
2022-09-28T06:03:21.738Z,11.70
2022-09-28T06:05:48.586Z,10.95
2022-09-28T06:08:15.523Z,11.23
2022-09-28T06:10:46.036Z,13.85
2022-09-28T06:13:13.897Z,10.93
2022-09-28T06:15:43.695Z,13.00
2022-09-28T06:18:14.926Z,12.82
2022-09-28T06:21:02.809Z,12.00
2022-09-28T06:23:36.975Z,11.68
2022-09-28T06:26:08.590Z,12.27
2022-09-28T06:28:35.863Z,10.60
2022-09-28T06:31:06.188Z,12.45
2022-09-28T06:33:44.003Z,11.93
2022-09-28T06:36:11.326Z,10.15
2022-09-28T06:38:51.565Z,12.45
2022-09-28T06:41:57.248Z,12.43
2022-09-28T06:45:02.982Z,12.00
2022-09-28T06:47:43.581Z,13.07
2022-09-28T06:50:40.230Z,10.93
2022-09-28T06:53:27.224Z,11.85
2022-09-28T06:56:02.760Z,9.70
2022-09-28T06:58:31.595Z,11.68
2022-09-28T07:01:00.142Z,8.48
2022-09-28T07:03:29.692Z,10.98
2022-09-28T07:06:21.266Z,8.65
2022-09-28T07:09:31.732Z,8.88
2022-09-28T07:12:28.787Z,8.43
2022-09-28T07:15:04.981Z,10.35
2022-09-28T07:17:37.244Z,6.15
2022-09-28T07:20:18.741Z,6.25
2022-09-28T07:22:50.660Z,6.30
2022-09-28T07:25:22.011Z,6.53
2022-09-28T07:28:06.749Z,6.88
2022-09-28T07:30:52.794Z,6.10
2022-09-28T07:33:39.905Z,7.97
2022-09-28T07:36:22.974Z,9.55
2022-09-28T07:38:51.229Z,7.72
2022-09-28T07:41:23.101Z,6.13
2022-09-28T07:43:51.506Z,6.80
2022-09-28T07:46:21.250Z,6.80
2022-09-28T07:48:55.975Z,7.53
2022-09-28T07:51:44.859Z,8.05
2022-09-28T07:54:39.941Z,8.55
2022-09-28T07:57:30.566Z,8.77
2022-09-28T08:00:11.664Z,7.03
2022-09-28T08:02:43.257Z,7.90
2022-09-28T08:05:19.982Z,8.00
2022-09-28T08:07:47.737Z,6.93
2022-09-28T08:10:48.774Z,7.80
2022-09-28T08:13:23.445Z,7.80
2022-09-28T08:16:11.446Z,7.35
2022-09-28T08:19:23.535Z,8.32
2022-09-28T08:21:50.875Z,6.70
2022-09-28T08:24:22.989Z,6.97
2022-09-28T08:27:00.811Z,7.75
2022-09-28T08:29:31.828Z,7.53
2022-09-28T08:32:17.930Z,6.55
2022-09-28T08:35:08.296Z,6.05
2022-09-28T08:37:56.174Z,7.20
2022-09-28T08:40:57.045Z,7.13
2022-09-28T08:43:49.414Z,7.82
2022-09-28T08:46:46.136Z,8.60
2022-09-28T08:49:42.001Z,6.80
2022-09-28T08:52:39.400Z,5.82
2022-09-28T08:55:38.955Z,4.95
2022-09-28T08:58:35.874Z,5.72
2022-09-28T09:01:08.649Z,4.10
2022-09-28T09:03:41.726Z,6.90
2022-09-28T09:06:56.824Z,4.05
2022-09-28T09:10:03.188Z,3.85
2022-09-28T09:12:50.442Z,2.70
2022-09-28T09:15:47.182Z,5.13
2022-09-28T09:18:37.651Z,1.10
2022-09-28T09:22:03.116Z,2.25
2022-09-28T09:25:26.665Z,1.67
2022-09-28T09:28:21.118Z,3.53
2022-09-28T09:31:28.868Z,3.15
2022-09-28T09:34:45.561Z,1.48
2022-09-28T09:38:19.294Z,2.25
2022-09-28T09:41:32.318Z,5.38
2022-09-28T09:44:49.413Z,4.05
2022-09-28T09:47:45.413Z,2.33
2022-09-28T09:50:31.077Z,2.38
2022-09-28T09:54:07.636Z,1.25
2022-09-28T09:56:43.959Z,1.52
2022-09-28T09:59:41.464Z,1.40
2022-09-28T10:05:11.903Z,1.75
2022-09-28T10:08:11.833Z,2.08
2022-09-28T10:10:55.224Z,1.80
2022-09-28T10:13:24.049Z,1.20
2022-09-28T10:15:55.522Z,1.15
2022-09-28T10:18:28.116Z,2.17
2022-09-28T10:21:37.569Z,1.80
2022-09-28T10:24:45.319Z,2.40
2022-09-28T10:27:21.291Z,2.33
2022-09-28T10:30:02.024Z,1.88
2022-09-28T10:32:46.174Z,1.73
2022-09-28T10:35:19.113Z,1.27
2022-09-28T10:38:17.250Z,0.82
2022-09-28T10:41:01.235Z,1.20
2022-09-28T10:44:11.052Z,1.52
2022-09-28T10:47:08.173Z,1.48
2022-09-28T10:49:47.358Z,2.15
2022-09-28T10:52:45.765Z,4.50
2022-09-28T10:55:33.430Z,2.53
2022-09-28T10:58:01.123Z,2.40
2022-09-28T11:00:43.126Z,5.13
2022-09-28T11:03:24.109Z,3.08
2022-09-28T11:06:09.851Z,2.90
2022-09-28T11:08:44.609Z,2.97
2022-09-28T11:11:21.392Z,1.75
2022-09-28T11:14:01.235Z,3.83
2022-09-28T11:16:35.930Z,2.70
2022-09-28T11:19:28.436Z,3.80
2022-09-28T11:21:55.687Z,2.65
2022-09-28T11:24:30.518Z,3.42
2022-09-28T11:27:00.945Z,1.83
2022-09-28T11:29:44.370Z,1.85
2022-09-28T11:32:44.326Z,4.10
2022-09-28T11:35:35.786Z,2.22
2022-09-28T11:38:25.825Z,3.10
2022-09-28T11:42:07.789Z,2.63
2022-09-28T11:44:49.778Z,3.13
2022-09-28T11:51:57.146Z,2.00
2022-09-28T11:54:42.968Z,2.20
2022-09-28T11:57:24.062Z,1.48
2022-09-28T12:00:23.091Z,3.05
2022-09-28T12:03:15.157Z,1.30
2022-09-28T12:05:57.449Z,1.75
2022-09-28T12:08:31.072Z,2.65
2022-09-28T12:11:12.479Z,1.60
2022-09-28T12:14:03.854Z,2.30
2022-09-28T12:17:05.686Z,1.95
2022-09-28T12:19:51.909Z,1.73
2022-09-28T12:23:03.463Z,1.20
2022-09-28T12:25:42.644Z,1.25
2022-09-28T12:28:40.031Z,1.05
2022-09-28T12:31:30.653Z,1.13
2022-09-28T12:33:58.061Z,1.95
2022-09-28T12:36:41.579Z,1.42
2022-09-28T12:39:56.641Z,1.45
2022-09-28T12:43:37.185Z,1.77
2022-09-28T12:46:46.101Z,1.85
2022-09-28T12:50:27.147Z,2.22
2022-09-28T12:55:55.574Z,1.23
2022-09-28T12:58:53.073Z,1.45
2022-09-28T13:02:08.208Z,1.50
2022-09-28T13:05:11.677Z,1.05
2022-09-28T13:08:09.080Z,0.80
2022-09-28T13:11:22.189Z,2.45
2022-09-28T13:14:20.566Z,1.08
2022-09-28T13:17:18.205Z,2.78
2022-09-28T13:20:01.665Z,2.03
2022-09-28T13:22:46.621Z,1.63
2022-09-28T13:25:19.252Z,1.33
2022-09-28T13:28:02.992Z,2.00
2022-09-28T13:30:32.789Z,1.98
2022-09-28T13:33:08.248Z,1.92
2022-09-28T13:35:35.286Z,1.23
2022-09-28T13:38:20.708Z,1.25
2022-09-28T13:43:55.632Z,1.33
2022-09-28T13:46:37.947Z,0.98
2022-09-28T13:49:29.203Z,0.63
2022-09-28T13:52:12.000Z,1.45
2022-09-28T13:55:17.247Z,1.48
2022-09-28T13:58:24.333Z,1.40
2022-09-28T14:01:00.000Z,1.60
2022-09-28T14:04:10.531Z,1.45
2022-09-28T14:06:44.489Z,0.93
2022-09-28T14:10:43.181Z,1.92
2022-09-28T14:17:42.760Z,1.17
2022-09-28T14:21:21.098Z,2.92
2022-09-28T14:24:08.213Z,1.35
2022-09-28T14:27:11.907Z,1.35
2022-09-28T14:29:40.085Z,1.17
2022-09-28T14:32:09.729Z,2.33
2022-09-28T14:34:48.501Z,0.95
2022-09-28T14:37:40.453Z,0.75
2022-09-28T14:40:54.907Z,1.38
2022-09-28T14:43:35.711Z,1.15
2022-09-28T14:46:11.340Z,2.53
2022-09-28T14:48:57.719Z,1.63
2022-09-28T14:51:27.759Z,2.63
2022-09-28T14:54:04.424Z,2.30
2022-09-28T14:56:54.326Z,2.53
2022-09-28T14:59:43.936Z,1.17
2022-09-28T15:02:10.880Z,1.98
2022-09-28T15:04:45.872Z,1.65
2022-09-28T15:09:59.096Z,1.35
2022-09-28T15:12:29.652Z,1.13
2022-09-28T15:15:04.265Z,1.65
2022-09-28T15:17:40.250Z,2.60
2022-09-28T15:20:49.070Z,2.03
2022-09-28T15:23:37.611Z,1.70
2022-09-28T15:26:08.510Z,1.10
2022-09-28T15:28:39.274Z,0.77
2022-09-28T15:31:06.333Z,1.00
2022-09-28T15:33:53.685Z,0.85
2022-09-28T15:36:27.894Z,0.95
2022-09-28T15:39:12.150Z,1.57
2022-09-28T15:41:40.374Z,0.85
2022-09-28T15:44:24.271Z,0.60
2022-09-28T15:47:27.466Z,1.40
2022-09-28T15:50:02.788Z,1.50
2022-09-28T15:52:38.902Z,1.23
2022-09-28T15:55:33.092Z,1.30
2022-09-28T15:58:21.168Z,1.58
2022-09-28T16:00:51.622Z,1.50
2022-09-28T16:03:29.415Z,3.55
2022-09-28T16:05:59.196Z,1.45
2022-09-28T16:08:45.321Z,5.38
2022-09-28T16:11:36.971Z,1.98
2022-09-28T16:14:19.473Z,1.77
2022-09-28T16:16:52.261Z,2.08
2022-09-28T16:19:36.330Z,1.65
2022-09-28T16:22:09.706Z,1.48
2022-09-28T16:24:38.996Z,1.45
2022-09-28T16:27:42.802Z,2.00
2022-09-28T16:30:32.462Z,1.60
2022-09-28T16:33:05.642Z,2.45
2022-09-28T16:35:50.952Z,1.42
2022-09-28T16:38:19.422Z,2.83
2022-09-28T16:40:54.729Z,3.67
2022-09-28T16:43:26.954Z,3.08
2022-09-28T16:46:01.249Z,3.47
2022-09-28T16:48:32.225Z,1.90
2022-09-28T16:51:02.711Z,3.25
2022-09-28T16:53:48.604Z,2.78
2022-09-28T16:56:16.036Z,3.15
2022-09-28T16:58:42.984Z,1.95
2022-09-28T17:01:11.911Z,1.88
2022-09-28T17:03:42.261Z,2.30
2022-09-28T17:06:12.798Z,2.92
2022-09-28T17:08:39.932Z,1.98
2022-09-28T17:11:19.297Z,2.88
2022-09-28T17:13:49.570Z,3.17
2022-09-28T17:16:36.712Z,3.28
2022-09-28T17:19:28.781Z,2.00
2022-09-28T17:21:55.743Z,2.65
2022-09-28T17:24:22.731Z,3.00
2022-09-28T17:26:52.176Z,3.55
2022-09-28T17:29:19.778Z,3.33
2022-09-28T17:31:48.173Z,2.38
2022-09-28T17:34:16.739Z,2.95
2022-09-28T17:36:45.209Z,2.78
2022-09-28T17:39:18.652Z,2.08
2022-09-28T17:41:46.290Z,3.45
2022-09-28T17:44:16.616Z,2.78
2022-09-28T17:46:48.394Z,4.43
2022-09-28T17:49:19.240Z,3.22
2022-09-28T17:51:50.388Z,4.25
2022-09-28T17:54:20.860Z,4.10
2022-09-28T17:56:48.058Z,2.95
2022-09-28T17:59:19.404Z,3.92
2022-09-28T18:01:51.357Z,6.72
2022-09-28T18:04:47.294Z,4.50
2022-09-28T18:07:05.524Z,4.95
2022-09-28T18:09:32.409Z,4.65
2022-09-28T18:12:03.948Z,4.22
2022-09-28T18:14:30.797Z,5.47
2022-09-28T18:16:57.780Z,5.65
2022-09-28T18:19:28.601Z,7.05
2022-09-28T18:21:58.935Z,7.13
2022-09-28T18:24:26.017Z,8.35
2022-09-28T18:26:52.801Z,6.72
2022-09-28T18:29:19.589Z,6.10
2022-09-28T18:31:48.633Z,7.43
2022-09-28T18:34:15.580Z,10.20
2022-09-28T18:36:42.540Z,8.18
2022-09-28T18:39:09.370Z,8.10
2022-09-28T18:41:36.368Z,8.65
2022-09-28T18:44:03.321Z,5.68
2022-09-28T18:46:35.952Z,5.15
2022-09-28T18:49:04.529Z,6.53
2022-09-28T18:51:31.359Z,4.90
2022-09-28T18:53:58.493Z,4.18
2022-09-28T18:56:26.829Z,6.65
2022-09-28T18:58:53.783Z,4.45
2022-09-28T19:01:30.473Z,3.78
2022-09-28T19:04:03.178Z,6.43
2022-09-28T19:06:31.780Z,2.53
2022-09-28T19:08:59.278Z,2.95
2022-09-28T19:11:27.705Z,4.70
2022-09-28T19:13:56.103Z,3.80
2022-09-28T19:16:29.368Z,2.45
2022-09-28T19:18:58.485Z,4.90
2022-09-28T19:21:26.779Z,3.00
2022-09-28T19:23:55.653Z,4.97
2022-09-28T19:26:27.518Z,5.20
2022-09-28T19:28:57.373Z,4.72
2022-09-28T19:31:26.566Z,7.97
2022-09-28T19:33:53.646Z,5.05
2022-09-28T19:36:25.543Z,6.05
2022-09-28T19:38:53.591Z,5.50
2022-09-28T19:41:44.421Z,7.13
2022-09-28T19:44:24.615Z,6.13
2022-09-28T19:47:00.511Z,7.97
2022-09-28T19:49:28.880Z,4.47
2022-09-28T19:52:12.045Z,4.88
2022-09-28T19:54:41.195Z,6.95
2022-09-28T19:57:08.878Z,3.97
2022-09-28T19:59:37.388Z,4.78
2022-09-28T20:02:07.613Z,5.97
2022-09-28T20:04:34.812Z,4.93
2022-09-28T20:07:02.552Z,4.72
2022-09-28T20:09:29.932Z,3.60
2022-09-28T20:11:57.195Z,5.40
2022-09-28T20:14:26.280Z,5.82
2022-09-28T20:16:55.265Z,5.55
2022-09-28T20:19:23.260Z,6.25
2022-09-28T20:21:51.089Z,5.68
2022-09-28T20:24:18.589Z,4.43
2022-09-28T20:26:46.005Z,7.05
2022-09-28T20:29:13.314Z,6.07
2022-09-28T20:31:40.799Z,5.53
2022-09-28T20:34:07.943Z,6.45
2022-09-28T20:36:34.840Z,8.23
2022-09-28T20:39:03.455Z,6.05
2022-09-28T20:41:36.899Z,5.47
2022-09-28T20:44:06.575Z,5.95
2022-09-28T20:46:37.220Z,8.18
2022-09-28T20:49:07.800Z,4.80
2022-09-28T20:51:35.128Z,10.48
2022-09-28T20:54:02.010Z,5.45
2022-09-28T20:56:38.073Z,5.85
2022-09-28T20:59:10.064Z,6.65
2022-09-28T21:01:37.531Z,7.03
2022-09-28T21:04:07.641Z,6.82
2022-09-28T21:06:43.310Z,6.88
2022-09-28T21:09:11.644Z,6.43
2022-09-28T21:11:39.441Z,5.97
2022-09-28T21:14:09.562Z,7.82
2022-09-28T21:16:36.581Z,7.88
2022-09-28T21:19:04.485Z,7.22
2022-09-28T21:21:31.857Z,7.55
2022-09-28T21:23:59.122Z,7.38
2022-09-28T21:26:28.812Z,9.55
2022-09-28T21:29:02.656Z,7.68
2022-09-28T21:31:36.610Z,8.40
2022-09-28T21:34:04.731Z,7.60
2022-09-28T21:36:32.367Z,8.73
2022-09-28T21:38:59.356Z,8.18
2022-09-28T21:41:26.705Z,6.93
2022-09-28T21:43:53.720Z,8.02
2022-09-28T21:46:20.878Z,7.95
2022-09-28T21:48:52.765Z,7.85
2022-09-28T21:51:20.262Z,9.45
2022-09-28T21:53:49.125Z,9.52
2022-09-28T21:56:16.182Z,7.90
2022-09-28T21:58:43.160Z,8.75
2022-09-28T22:01:22.759Z,8.23
2022-09-28T22:03:55.719Z,7.40
2022-09-28T22:06:28.083Z,10.75
2022-09-28T22:08:56.010Z,9.10
2022-09-28T22:11:26.628Z,11.13
2022-09-28T22:13:56.696Z,9.02
2022-09-28T22:16:26.665Z,8.68
2022-09-28T22:18:53.746Z,8.50
2022-09-28T22:21:31.777Z,8.68
2022-09-28T22:24:01.109Z,9.95
2022-09-28T22:26:31.463Z,9.05
2022-09-28T22:29:02.127Z,8.25
2022-09-28T22:31:36.915Z,7.88
2022-09-28T22:34:04.645Z,7.57
2022-09-28T22:36:31.826Z,7.65
2022-09-28T22:38:59.781Z,7.82
2022-09-28T22:41:27.297Z,9.70
2022-09-28T22:43:55.201Z,9.15
2022-09-28T22:46:26.410Z,10.77
2022-09-28T22:48:56.852Z,9.35
2022-09-28T22:51:26.238Z,8.05
2022-09-28T22:53:53.163Z,8.05
2022-09-28T22:56:20.060Z,10.40
2022-09-28T22:58:47.493Z,8.75
2022-09-28T23:01:17.844Z,10.68
2022-09-28T23:03:45.519Z,11.32
2022-09-28T23:06:16.665Z,7.30
2022-09-28T23:08:45.415Z,7.60
2022-09-28T23:11:12.342Z,8.80
2022-09-28T23:13:39.594Z,7.30
2022-09-28T23:16:11.039Z,8.88
2022-09-28T23:18:42.363Z,8.90
2022-09-28T23:21:19.954Z,9.00
2022-09-28T23:23:53.696Z,9.75
2022-09-28T23:26:24.952Z,8.48
2022-09-28T23:28:53.624Z,8.23
2022-09-28T23:31:29.129Z,9.07
2022-09-28T23:34:05.146Z,9.02
2022-09-28T23:36:33.345Z,8.88
2022-09-28T23:39:00.462Z,9.00
2022-09-28T23:41:27.490Z,8.88
2022-09-28T23:43:54.345Z,9.30
2022-09-28T23:46:21.511Z,10.10
2022-09-28T23:48:49.617Z,7.15
2022-09-28T23:51:16.980Z,6.53
2022-09-28T23:53:43.974Z,7.35
2022-09-28T23:56:11.459Z,7.45
2022-09-28T23:58:38.388Z,8.00
